createdAt,value
2022-11-18T00:00:20.329Z,11.75
2022-11-18T00:03:25.715Z,9.30
2022-11-18T00:06:32.427Z,7.20
2022-11-18T00:09:40.203Z,7.10
2022-11-18T00:12:57.860Z,7.55
2022-11-18T00:16:03.588Z,10.18
2022-11-18T00:19:08.979Z,9.07
2022-11-18T00:22:16.115Z,7.82
2022-11-18T00:25:23.968Z,8.85
2022-11-18T00:28:29.122Z,7.13
2022-11-18T00:31:34.460Z,8.88
2022-11-18T00:34:39.655Z,6.40
2022-11-18T00:37:44.952Z,7.85
2022-11-18T00:40:52.823Z,10.30
2022-11-18T00:43:55.439Z,9.38
2022-11-18T00:47:00.642Z,7.15
2022-11-18T00:50:05.751Z,7.80
2022-11-18T00:53:10.785Z,9.70
2022-11-18T00:56:18.625Z,8.70
2022-11-18T00:59:24.086Z,8.00
2022-11-18T01:02:29.168Z,10.50
2022-11-18T01:05:34.490Z,9.38
2022-11-18T01:08:39.482Z,8.13
2022-11-18T01:11:59.442Z,10.10
2022-11-18T01:15:04.611Z,8.75
2022-11-18T01:18:09.695Z,11.82
2022-11-18T01:21:15.152Z,7.20
2022-11-18T01:24:20.310Z,7.63
2022-11-18T01:27:28.377Z,9.68
2022-11-18T01:30:35.810Z,8.30
2022-11-18T01:33:41.008Z,5.83
2022-11-18T01:36:46.015Z,7.35
2022-11-18T01:39:51.433Z,8.55
2022-11-18T01:42:59.317Z,8.10
2022-11-18T01:46:04.526Z,7.03
2022-11-18T01:49:10.699Z,11.13
2022-11-18T01:52:16.785Z,9.30
2022-11-18T01:55:24.841Z,8.95
2022-11-18T01:58:34.152Z,8.85
2022-11-18T02:01:40.015Z,8.32
2022-11-18T02:04:47.577Z,9.25
2022-11-18T02:07:53.095Z,7.37
2022-11-18T02:10:58.425Z,10.68
2022-11-18T02:14:07.882Z,9.15
2022-11-18T02:17:17.709Z,7.75
2022-11-18T02:20:33.571Z,7.35
2022-11-18T02:23:58.604Z,7.93
2022-11-18T02:27:22.948Z,8.35
2022-11-18T02:30:33.162Z,12.65
2022-11-18T02:33:41.752Z,8.00
2022-11-18T02:36:50.423Z,8.63
2022-11-18T02:39:57.894Z,6.55
2022-11-18T02:43:05.333Z,10.38
2022-11-18T02:46:14.607Z,6.93
2022-11-18T02:49:23.438Z,8.43
2022-11-18T02:52:29.976Z,8.95
2022-11-18T02:55:37.456Z,8.00
2022-11-18T02:58:42.865Z,9.63
2022-11-18T03:01:51.439Z,10.55
2022-11-18T03:04:58.664Z,8.48
2022-11-18T03:08:06.801Z,9.50
2022-11-18T03:11:16.260Z,6.90
2022-11-18T03:14:26.317Z,9.95
2022-11-18T03:17:41.716Z,8.25
2022-11-18T03:20:50.758Z,7.32
2022-11-18T03:23:59.357Z,7.53
2022-11-18T03:27:08.155Z,8.70
2022-11-18T03:30:15.565Z,8.27
2022-11-18T03:33:24.753Z,7.30
2022-11-18T03:36:32.977Z,8.68
2022-11-18T03:39:39.855Z,6.55
2022-11-18T03:42:47.063Z,6.53
2022-11-18T03:45:53.762Z,5.82
2022-11-18T03:49:02.274Z,8.20
2022-11-18T03:52:10.492Z,5.85
2022-11-18T03:55:18.165Z,8.02
2022-11-18T03:58:26.981Z,7.60
2022-11-18T04:01:35.568Z,6.82
2022-11-18T04:04:43.619Z,6.38
2022-11-18T04:07:54.092Z,6.97
2022-11-18T04:11:03.145Z,6.90
2022-11-18T04:14:10.118Z,5.50
2022-11-18T04:17:16.370Z,8.07
2022-11-18T04:20:25.125Z,12.02
2022-11-18T04:23:30.384Z,8.52
2022-11-18T04:26:35.436Z,7.97
2022-11-18T04:29:40.669Z,8.57
2022-11-18T04:32:45.872Z,6.93
2022-11-18T04:35:53.884Z,8.18
2022-11-18T04:38:58.861Z,8.13
2022-11-18T04:42:04.014Z,7.35
2022-11-18T04:45:10.072Z,8.95
2022-11-18T04:48:15.462Z,7.65
2022-11-18T04:51:23.054Z,7.93
2022-11-18T04:54:29.032Z,4.53
2022-11-18T04:57:34.211Z,7.00
2022-11-18T05:00:39.660Z,5.10
2022-11-18T05:03:49.334Z,7.18
2022-11-18T05:06:58.514Z,7.07
2022-11-18T05:10:03.861Z,8.25
2022-11-18T05:13:06.294Z,8.35
2022-11-18T05:16:11.527Z,8.27
2022-11-18T05:19:16.754Z,7.45
2022-11-18T05:22:24.964Z,6.70
2022-11-18T05:25:30.119Z,6.35
2022-11-18T05:28:35.452Z,6.90
2022-11-18T05:31:40.688Z,10.13
2022-11-18T05:34:46.346Z,7.40
2022-11-18T05:37:54.196Z,7.95
2022-11-18T05:40:59.506Z,8.10
2022-11-18T05:44:02.117Z,5.25
2022-11-18T05:47:07.690Z,6.15
2022-11-18T05:50:16.068Z,8.50
2022-11-18T05:53:26.226Z,6.90
2022-11-18T05:56:32.078Z,7.05
2022-11-18T05:59:37.263Z,8.18
2022-11-18T06:02:44.511Z,6.57
2022-11-18T06:05:50.253Z,8.15
2022-11-18T06:09:00.079Z,10.68
2022-11-18T06:12:06.757Z,7.22
2022-11-18T06:15:15.043Z,9.38
2022-11-18T06:18:21.854Z,8.25
2022-11-18T06:21:27.643Z,8.40
2022-11-18T06:24:35.618Z,12.23
2022-11-18T06:27:40.786Z,6.80
2022-11-18T06:30:46.213Z,7.18
2022-11-18T06:34:00.155Z,8.35
2022-11-18T06:37:15.427Z,8.02
2022-11-18T06:40:23.330Z,5.72
2022-11-18T06:43:44.496Z,10.27
2022-11-18T06:47:02.737Z,8.10
2022-11-18T06:53:12.892Z,12.48
2022-11-18T06:56:21.366Z,7.20
2022-11-18T07:02:31.715Z,8.60
2022-11-18T07:05:36.901Z,7.05
2022-11-18T07:08:42.665Z,8.07
2022-11-18T07:11:50.538Z,7.78
2022-11-18T07:14:55.838Z,8.15
2022-11-18T07:18:01.196Z,7.03
2022-11-18T07:21:06.743Z,7.30
2022-11-18T07:24:12.660Z,7.25
2022-11-18T07:27:20.565Z,9.48
2022-11-18T07:30:25.975Z,9.82
2022-11-18T07:33:31.066Z,8.07
2022-11-18T07:36:36.637Z,7.50
2022-11-18T07:39:41.851Z,9.30
2022-11-18T07:42:49.986Z,9.77
2022-11-18T07:46:12.048Z,8.43
2022-11-18T07:49:17.616Z,8.38
2022-11-18T07:52:22.812Z,9.10
2022-11-18T07:55:31.988Z,8.63
2022-11-18T07:58:40.332Z,11.77
2022-11-18T08:01:45.554Z,8.63
2022-11-18T08:04:50.768Z,7.93
2022-11-18T08:07:56.007Z,6.90
2022-11-18T08:11:02.412Z,6.85
2022-11-18T08:14:10.485Z,6.97
2022-11-18T08:17:15.701Z,20.52
2022-11-18T08:20:20.941Z,8.32
2022-11-18T08:23:32.425Z,8.68
2022-11-18T08:26:39.413Z,7.63
2022-11-18T08:29:47.342Z,8.05
2022-11-18T08:32:52.467Z,7.93
2022-11-18T08:35:57.774Z,8.77
2022-11-18T08:39:04.043Z,8.45
2022-11-18T08:42:09.347Z,11.05
2022-11-18T08:45:17.022Z,6.57
2022-11-18T08:48:22.267Z,6.95
2022-11-18T08:51:27.899Z,8.05
2022-11-18T08:54:33.165Z,6.97
2022-11-18T08:57:38.296Z,13.25
2022-11-18T09:00:46.170Z,7.47
2022-11-18T09:03:52.336Z,8.15
2022-11-18T09:06:57.492Z,8.75
2022-11-18T09:10:02.900Z,8.60
2022-11-18T09:13:38.680Z,8.10
2022-11-18T09:16:37.604Z,9.05
2022-11-18T09:19:47.807Z,9.38
2022-11-18T09:22:53.501Z,8.23
2022-11-18T09:26:00.719Z,10.00
2022-11-18T09:29:05.896Z,21.10
2022-11-18T09:32:13.522Z,8.07
2022-11-18T09:35:18.804Z,8.80
2022-11-18T09:38:24.074Z,8.90
2022-11-18T09:41:39.079Z,8.55
2022-11-18T09:44:51.658Z,9.25
2022-11-18T09:48:02.005Z,7.85
2022-11-18T09:51:08.474Z,17.50
2022-11-18T09:54:15.632Z,10.48
2022-11-18T09:57:23.660Z,7.50
2022-11-18T10:00:30.458Z,9.33
2022-11-18T10:03:38.202Z,6.18
2022-11-18T10:06:43.369Z,13.68
2022-11-18T10:09:48.887Z,7.80
2022-11-18T10:12:59.128Z,7.15
2022-11-18T10:16:11.148Z,7.63
2022-11-18T10:19:25.480Z,12.38
2022-11-18T10:22:33.728Z,8.35
2022-11-18T10:25:38.849Z,8.75
2022-11-18T10:28:43.880Z,7.85
2022-11-18T10:31:59.754Z,9.93
2022-11-18T10:35:25.712Z,8.65
2022-11-18T10:38:30.949Z,9.48
2022-11-18T10:41:41.435Z,11.43
2022-11-18T10:44:46.786Z,6.25
2022-11-18T10:48:00.353Z,8.52
2022-11-18T10:51:22.947Z,7.43
2022-11-18T10:54:28.349Z,8.18
2022-11-18T10:57:37.104Z,9.50
2022-11-18T11:00:50.143Z,12.60
2022-11-18T11:04:03.105Z,10.30
2022-11-18T11:07:21.003Z,11.18
2022-11-18T11:10:26.529Z,9.15
2022-11-18T11:13:33.350Z,9.60
2022-11-18T11:16:42.596Z,11.77
2022-11-18T11:19:52.434Z,9.68
2022-11-18T11:23:00.844Z,8.10
2022-11-18T11:29:41.073Z,13.13
2022-11-18T11:32:58.389Z,8.02
2022-11-18T11:36:07.128Z,9.07
2022-11-18T11:39:26.070Z,7.82
2022-11-18T11:42:38.377Z,7.43
2022-11-18T11:45:48.102Z,9.75
2022-11-18T11:48:59.605Z,7.35
2022-11-18T11:52:08.702Z,9.95
2022-11-18T11:55:21.679Z,8.13
2022-11-18T11:58:33.169Z,11.25
2022-11-18T12:01:40.669Z,9.07
2022-11-18T12:04:47.548Z,8.77
2022-11-18T12:07:54.986Z,7.38
2022-11-18T12:11:06.771Z,11.15
2022-11-18T12:14:16.349Z,10.85
2022-11-18T12:17:25.613Z,10.07
2022-11-18T12:20:48.130Z,8.60
2022-11-18T12:24:16.735Z,10.02
2022-11-18T12:27:36.664Z,9.55
2022-11-18T12:30:44.525Z,7.57
2022-11-18T12:33:50.706Z,11.07
2022-11-18T12:36:56.364Z,7.82
2022-11-18T12:40:02.890Z,10.45
2022-11-18T12:43:21.347Z,9.95
2022-11-18T12:46:45.586Z,9.05
2022-11-18T12:50:14.504Z,7.80
2022-11-18T12:53:35.334Z,10.05
2022-11-18T12:56:40.465Z,11.65
2022-11-18T12:59:45.786Z,8.63
2022-11-18T13:02:54.708Z,11.40
2022-11-18T13:06:04.782Z,8.68
2022-11-18T13:09:18.808Z,9.10
2022-11-18T13:12:29.757Z,8.10
2022-11-18T13:15:47.256Z,9.38
2022-11-18T13:18:53.367Z,9.25
2022-11-18T13:22:11.638Z,8.95
2022-11-18T13:28:28.761Z,11.80
2022-11-18T13:31:37.493Z,8.25
2022-11-18T13:34:45.690Z,9.55
2022-11-18T13:37:55.017Z,11.82
2022-11-18T13:41:14.161Z,10.40
2022-11-18T13:44:30.112Z,7.45
2022-11-18T13:47:38.851Z,12.18
2022-11-18T13:50:44.608Z,14.05
2022-11-18T13:53:50.638Z,10.10
2022-11-18T13:56:56.345Z,10.95
2022-11-18T14:00:07.494Z,9.40
2022-11-18T14:03:22.116Z,7.00
2022-11-18T14:06:28.125Z,9.20
2022-11-18T14:09:34.040Z,9.82
2022-11-18T14:16:02.218Z,10.18
2022-11-18T14:19:07.499Z,9.25
2022-11-18T14:22:16.364Z,8.65
2022-11-18T14:25:23.104Z,11.10
2022-11-18T14:28:30.377Z,8.25
2022-11-18T14:31:38.261Z,12.03
2022-11-18T14:34:43.518Z,7.18
2022-11-18T14:37:48.828Z,8.88
2022-11-18T14:40:57.395Z,9.77
2022-11-18T14:44:02.808Z,8.63
2022-11-18T14:47:16.748Z,11.77
2022-11-18T14:50:21.978Z,10.77
2022-11-18T14:53:27.080Z,12.75
2022-11-18T14:56:33.327Z,10.98
2022-11-18T14:59:38.511Z,10.50
2022-11-18T15:02:46.419Z,7.88
2022-11-18T15:05:51.598Z,9.40
2022-11-18T15:08:56.968Z,8.80
2022-11-18T15:12:03.898Z,10.27
2022-11-18T15:15:10.482Z,12.45
2022-11-18T15:18:18.105Z,7.38
2022-11-18T15:21:23.389Z,8.38
2022-11-18T15:24:28.767Z,10.40
2022-11-18T15:27:34.510Z,8.32
2022-11-18T15:30:39.724Z,9.43
2022-11-18T15:33:48.948Z,7.45
2022-11-18T15:36:54.208Z,6.50
2022-11-18T15:40:00.046Z,6.82
2022-11-18T15:43:05.269Z,6.97
2022-11-18T15:46:10.626Z,6.85
2022-11-18T15:49:18.590Z,6.47
2022-11-18T15:52:23.748Z,8.00
2022-11-18T15:55:28.800Z,9.27
2022-11-18T15:58:36.092Z,7.25
2022-11-18T16:01:42.337Z,9.17
2022-11-18T16:04:50.217Z,7.90
2022-11-18T16:07:55.320Z,8.77
2022-11-18T16:11:13.420Z,8.38
2022-11-18T16:14:19.551Z,6.25
2022-11-18T16:17:25.333Z,8.98
2022-11-18T16:20:33.182Z,9.20
2022-11-18T16:23:38.423Z,11.65
2022-11-18T16:26:43.442Z,7.85
2022-11-18T16:29:48.627Z,7.82
2022-11-18T16:32:54.820Z,8.02
2022-11-18T16:36:03.306Z,10.20
2022-11-18T16:42:14.541Z,11.02
2022-11-18T16:45:20.448Z,8.80
2022-11-18T16:48:25.766Z,8.65
2022-11-18T16:51:34.440Z,9.48
2022-11-18T16:54:44.790Z,9.93
2022-11-18T16:57:50.712Z,11.05
2022-11-18T17:01:22.123Z,12.18
2022-11-18T17:04:21.729Z,9.18
2022-11-18T17:07:33.927Z,13.05
2022-11-18T17:10:42.149Z,10.85
2022-11-18T17:13:48.792Z,11.35
2022-11-18T17:16:55.550Z,10.88
2022-11-18T17:20:00.866Z,9.50
2022-11-18T17:23:08.709Z,9.13
2022-11-18T17:26:15.196Z,11.25
2022-11-18T17:29:20.979Z,9.15
2022-11-18T17:32:26.595Z,11.00
2022-11-18T17:35:31.622Z,7.90
2022-11-18T17:38:40.014Z,12.30
2022-11-18T17:41:57.290Z,8.77
2022-11-18T17:45:02.292Z,12.52
2022-11-18T17:48:09.394Z,11.23
2022-11-18T17:51:14.479Z,10.95
2022-11-18T17:54:22.527Z,9.02
2022-11-18T17:57:27.821Z,8.57
2022-11-18T18:00:33.560Z,9.85
2022-11-18T18:03:38.842Z,11.32
2022-11-18T18:06:44.280Z,12.23
2022-11-18T18:09:51.895Z,9.35
2022-11-18T18:13:09.454Z,10.98
2022-11-18T18:16:14.720Z,10.35
2022-11-18T18:19:21.784Z,10.80
2022-11-18T18:22:27.363Z,10.00
2022-11-18T18:25:36.438Z,11.30
2022-11-18T18:28:41.977Z,11.68
2022-11-18T18:31:47.157Z,10.57
2022-11-18T18:34:52.244Z,12.27
2022-11-18T18:37:58.823Z,12.63
2022-11-18T18:41:09.349Z,9.75
2022-11-18T18:44:18.618Z,13.45
2022-11-18T18:47:21.480Z,11.25
2022-11-18T18:50:29.641Z,9.82
2022-11-18T18:53:37.929Z,12.23
2022-11-18T18:56:45.739Z,12.30
2022-11-18T18:59:51.240Z,10.15
2022-11-18T19:02:57.099Z,15.13
2022-11-18T19:06:34.610Z,10.60
2022-11-18T19:09:27.955Z,12.95
2022-11-18T19:12:52.486Z,14.57
2022-11-18T19:15:57.573Z,12.80
2022-11-18T19:19:02.880Z,12.10
2022-11-18T19:22:07.897Z,10.90
2022-11-18T19:25:13.338Z,13.98
2022-11-18T19:28:20.981Z,13.18
2022-11-18T19:31:26.090Z,15.13
2022-11-18T19:34:31.122Z,11.82
2022-11-18T19:37:36.752Z,13.75
2022-11-18T19:40:41.901Z,15.73
2022-11-18T19:43:49.599Z,13.40
2022-11-18T19:46:54.698Z,12.73
2022-11-18T19:50:00.006Z,14.57
2022-11-18T19:53:25.298Z,13.50
2022-11-18T19:56:30.560Z,13.63
2022-11-18T19:59:38.436Z,14.00
2022-11-18T20:02:43.694Z,15.32
2022-11-18T20:05:54.984Z,14.77
2022-11-18T20:09:00.566Z,13.75
2022-11-18T20:12:06.067Z,11.57
2022-11-18T20:15:14.291Z,13.88
2022-11-18T20:21:27.955Z,13.63
2022-11-18T20:24:33.179Z,15.85
2022-11-18T20:27:38.484Z,14.05
2022-11-18T20:30:48.277Z,17.55
2022-11-18T20:33:54.198Z,12.98
2022-11-18T20:36:59.536Z,11.32
2022-11-18T20:40:04.784Z,12.43
2022-11-18T20:43:15.958Z,16.92
2022-11-18T20:46:24.309Z,13.52
2022-11-18T20:49:29.816Z,11.80
2022-11-18T20:52:36.264Z,11.63
2022-11-18T20:55:41.601Z,14.57
2022-11-18T20:58:47.127Z,13.60
2022-11-18T21:01:55.058Z,12.82
2022-11-18T21:05:00.341Z,13.73
2022-11-18T21:08:06.233Z,15.40
2022-11-18T21:11:12.153Z,20.65
2022-11-18T21:14:24.875Z,14.23
2022-11-18T21:17:32.976Z,12.23
2022-11-18T21:20:50.904Z,13.93
2022-11-18T21:23:56.687Z,13.02
2022-11-18T21:27:02.565Z,16.00
2022-11-18T21:30:08.392Z,19.38
2022-11-18T21:41:19.579Z,36.40
2022-11-18T21:48:35.835Z,16.20
2022-11-18T21:51:59.713Z,17.00
2022-11-18T22:06:48.109Z,17.58
2022-11-18T22:17:57.436Z,16.17
2022-11-18T22:32:48.290Z,27.50
2022-11-18T22:36:13.693Z,44.05
2022-11-18T22:39:52.873Z,41.85
2022-11-18T22:58:31.688Z,27.25
2022-11-18T23:01:37.404Z,23.88
2022-11-18T23:04:43.000Z,23.85
2022-11-18T23:07:48.192Z,25.77
2022-11-18T23:10:53.465Z,21.77
2022-11-18T23:14:04.046Z,20.20
2022-11-18T23:17:09.422Z,20.45
2022-11-18T23:20:14.891Z,16.80
2022-11-18T23:23:19.980Z,20.88
2022-11-18T23:26:25.301Z,19.58
2022-11-18T23:29:33.137Z,19.05
2022-11-18T23:32:38.162Z,19.77
2022-11-18T23:35:43.405Z,12.98
2022-11-18T23:38:48.945Z,19.65
2022-11-18T23:41:54.461Z,15.30
2022-11-18T23:45:05.200Z,18.92
2022-11-18T23:48:10.636Z,16.27
2022-11-18T23:51:16.341Z,14.07
2022-11-18T23:54:21.743Z,15.98
2022-11-18T23:57:26.916Z,17.73
